• Join FlightAware (Why Join?)
  • Login
  • US Flag 
08:00AM EST


 

Airport Tracker/Info


-or-


 

Live Flight TrackerFlight Track Log ✈ GJS3649 ✈ 17-Apr-2013 ✈ KORD - KPWM

Flight Track Log - Related Links

Times and Time Zones

All times are in EDT time to prevent confusion due to time zone crossing. See the GJS3649 flight status page for this flight to view local times or setup timezone preferences in your user account.

Time Position Orientation Groundspeed Altitude Reporting Facility
EDT Latitude Longitude Course Direction KTS MPH feet Rate Location/Type
09:10AM 42.0167 -87.8667 66° East 148 170 2,600  Level Chicago TRACON
09:11AM 42.0333 -87.8000 71° East 216 249 4,500 2,220 Climbing Chicago TRACON
09:12AM 42.0667 -87.7000 66° East 271 312 7,100 2,460 Climbing Chicago TRACON
09:13AM 42.1000 -87.6000 66° East 301 346 9,500 2,400 Climbing Chicago TRACON
09:14AM 42.1333 -87.5000 66° East 333 383 11,900 2,220 Climbing Chicago TRACON
09:15AM 42.2227 -87.1820 66° East  Level FlightAware Approximate
09:15AM 42.1697 -87.3844 67° East 337 388 14,300  Level Chicago Center
09:16AM 42.2219 -87.2306 65° Northeast 379 436 15,400 1,680 Climbing Chicago Center
09:17AM 42.2675 -87.0975 65° Northeast 393 452 17,800 1,740 Climbing Chicago Center
09:18AM 42.2831 -86.9453 82° East 413 475 19,100 1,560 Climbing Chicago Center
09:19AM 42.2894 -86.7881 87° East 420 483 21,100 1,980 Climbing Chicago Center
09:20AM 42.2967 -86.6136 87° East 426 490 23,200 1,500 Climbing Chicago Center
09:21AM 42.3019 -86.4464 88° East 442 509 24,200 960 Climbing Chicago Center
09:22AM 42.3086 -86.2700 87° East 465 535 25,200 1,020 Climbing Chicago Center
09:23AM 42.3147 -86.0886 87° East 481 554 26,300 960 Climbing Chicago Center
09:24AM 42.3122 -85.9011 91° East 496 571 27,300 960 Climbing Chicago Center
09:25AM 42.3108 -85.7114 91° East 502 578 28,300 1,020 Climbing Chicago Center
09:26AM 42.3089 -85.5183 91° East 511 588 29,500 1,320 Climbing Chicago Center
09:27AM 42.3069 -85.3542 91° East 492 566 30,600 1,200 Climbing Cleveland Center
09:28AM 42.3064 -85.1631 90° East 498 573 31,600 960 Climbing Cleveland Center
09:29AM 42.2994 -84.9686 93° East 503 579 32,600 660 Climbing Cleveland Center
09:30AM 42.3064 -84.7783 87° East 508 585 33,000 180 Climbing Cleveland Center
09:31AM 42.3169 -84.6019 85° East 513 590 33,000 300 Level Cleveland Center
09:32AM 42.3364 -84.4008 82° East 520 598 33,600 720 Climbing Cleveland Center
09:33AM 42.3533 -84.2022 83° East 530 610 34,500 840 Climbing Cleveland Center
09:34AM 42.3697 -84.0064 83° East 530 610 35,300 780 Climbing Cleveland Center
09:35AM 42.3858 -83.8050 84° East 530 610 36,100 780 Climbing Cleveland Center
09:36AM 42.4036 -83.6117 83° East 530 610 36,900 420 Climbing Cleveland Center
09:37AM 42.4192 -83.4128 84° East 533 613 37,000  Climbing Cleveland Center
09:38AM 42.4325 -83.1967 85° East 533 613 37,000 -480 Level Cleveland Center
09:39AM 42.4472 -82.9975 84° East 533 613 36,100  Descending Cleveland Center
09:40AM 42.4617 -82.8067 84° East 528 608 37,000 420 Climbing Cleveland Center
09:41AM 42.4758 -82.6072 84° East 523 602 37,000  Level Cleveland Center
09:42AM 42.4872 -82.4133 85° East 518 596 37,000  Level Cleveland Center
09:43AM 42.5006 -82.2167 85° East 518 596 37,000  Level Cleveland Center
09:44AM 42.5136 -82.0197 85° East 518 596 37,000  Level Cleveland Center
09:45AM 42.5244 -81.8200 86° East 518 596 37,000  Level Cleveland Center
09:46AM 42.5408 -81.6258 83° East 518 596 37,000  Level Cleveland Center
09:47AM 42.5528 -81.4456 85° East 524 603 37,000  Level Cleveland Center
09:48AM 42.5625 -81.2483 86° East 524 603 37,000  Level Cleveland Center
09:49AM 42.5758 -81.0539 85° East 529 609 37,000  Level Cleveland Center
09:50AM 42.5850 -80.8511 86° East 529 609 37,000  Level Cleveland Center
09:51AM 42.5956 -80.6536 86° East 529 609 37,000 180 Level Cleveland Center
09:52AM 42.6081 -80.4392 85° East 529 609 37,400 660 Climbing Cleveland Center
09:53AM 42.6181 -80.2417 86° East 518 596 38,400 780 Climbing Cleveland Center
09:54AM 42.6258 -80.0500 87° East 512 589 39,000 300 Climbing Cleveland Center
09:55AM 42.6353 -79.8747 86° East 517 595 39,000  Level Cleveland Center
09:56AM 42.6442 -79.6744 86° East 517 595 39,000  Level Cleveland Center
09:57AM 42.6508 -79.4739 87° East 517 595 39,000  Level Cleveland Center
09:58AM 42.6611 -79.2731 86° East 523 602 39,000  Level Cleveland Center
09:59AM 42.6692 -79.0753 87° East 523 602 39,000  Level Cleveland Center
10:00AM 42.6769 -78.8717 87° East 523 602 39,000  Level Cleveland Center
10:01AM 42.6822 -78.6767 88° East 523 602 39,000  Level Cleveland Center
10:02AM 42.6889 -78.4731 87° East 528 608 39,000  Level Cleveland Center
10:03AM 42.6956 -78.2753 87° East 528 608 39,000  Level Cleveland Center
10:04AM 42.7017 -78.0714 88° East 533 613 39,000  Level Cleveland Center
10:05AM 42.7078 -77.8733 88° East 533 613 39,000  Level Cleveland Center
10:06AM 42.7128 -77.6528 88° East 533 613 39,000  Level Cleveland Center
10:07AM 42.7197 -77.4461 87° East 539 620 39,000  Level Cleveland Center
10:08AM 42.7228 -77.2508 89° East 533 613 39,000  Level Cleveland Center
10:09AM 42.7286 -76.9803 88° East 528 608 39,000  Level Boston Center
10:10AM 42.7325 -76.7769 88° East 528 608 39,000  Level Boston Center
10:11AM 42.7356 -76.5792 89° East 528 608 39,000  Level Boston Center
10:12AM 42.7386 -76.3783 89° East 528 608 39,000  Level Boston Center
10:13AM 42.7453 -76.1808 87° East 528 608 39,000  Level Boston Center
10:14AM 42.7764 -75.9903 77° East 523 602 39,000  Level Boston Center
10:15AM 42.8072 -75.7967 78° East 523 602 39,000  Level Boston Center
10:16AM 42.8422 -75.6006 76° East 523 602 39,000  Level Boston Center
10:17AM 42.8703 -75.4119 78° East 523 602 39,000  Level Boston Center
10:18AM 42.8975 -75.2347 78° East 523 602 39,000  Level Boston Center
10:19AM 42.9242 -75.0800 77° East 523 602 39,000  Level Boston Center
10:20AM 42.9586 -74.8431 79° East 528 608 39,000  Level Boston Center
10:21AM 42.9897 -74.6514 77° East 523 602 39,000  Level Boston Center
10:22AM 43.0183 -74.4536 79° East 523 602 39,000  Level Boston Center
10:23AM 43.0467 -74.2556 79° East 523 602 39,000  Level Boston Center
10:24AM 43.0767 -74.0603 78° East 523 602 39,000  Level Boston Center
10:25AM 43.1042 -73.8647 79° East 523 602 39,000  Level Boston Center
10:26AM 43.1317 -73.6664 79° East 523 602 39,000  Level Boston Center
10:27AM 43.1539 -73.5158 79° East 518 596 39,000 -1,440 Level Boston Center
10:28AM 43.1956 -73.2575 77° East 523 602 36,200 -2,700 Descending Boston Center
10:29AM 43.2219 -73.0583 80° East 523 602 33,700 -2,520 Descending Boston Center
10:30AM 43.2478 -72.8592 80° East 523 602 31,200 -2,460 Descending Boston Center
10:31AM 43.2775 -72.6625 78° East 523 602 28,700 -2,580 Descending Boston Center
10:32AM 43.3028 -72.4714 80° East 523 602 26,100 -2,640 Descending Boston Center
10:33AM 43.3236 -72.2858 81° East 510 587 23,600 -2,520 Descending Boston Center
10:34AM 43.3461 -72.1061 80° East 494 568 21,200 -2,280 Descending Boston Center
10:35AM 43.3706 -71.9317 79° East 471 542 19,100 -1,980 Descending Boston Center
10:36AM 43.3883 -71.7603 82° East 454 522 17,300 -1,860 Descending Boston Center
10:37AM 43.4081 -71.6000 80° East 435 501 15,400 -1,740 Descending Boston Center
10:38AM 43.4278 -71.4481 80° East 411 473 13,900 -1,560 Descending Boston Center
10:39AM 43.4450 -71.2933 81° East 406 467 12,300 -1,440 Descending Boston Center
10:40AM 43.4644 -71.1586 79° East 406 467 11,000 -660 Descending Boston Center
10:41AM 43.5022 -70.9975 72° East 406 467 11,000 -540 Level Boston Center
10:42AM 43.5319 -70.8908 69° East 366 421 10,000 -1,440 Descending Boston Center
10:43AM 43.5342 -70.7589 89° East 314 361 8,200 -1,680 Descending Boston Center
10:44AM 43.5306 -70.6531 93° East 305 351 6,700 -1,500 Descending Boston Center
10:45AM 43.5244 -70.5358 94° East 293 337 5,200 -1,320 Descending Boston Center
10:46AM 43.5186 -70.4386 95° East 281 323 4,200 -1,380 Descending Boston Center
10:47AM 43.5147 -70.3358 93° East 258 297 2,500 -1,080 Descending Boston Center
10:48AM 43.5278 -70.2581 77° East 235 270 2,100 -420 Descending Boston Center
10:49AM 43.5772 -70.2161 32° Northeast 187 215 1,700 -180 Descending Boston Center
10:50AM 43.6142 -70.1889 28° Northeast 187 215 1,800  Climbing Boston Center
10:51AM 43.6703 -70.1811 North 173 199 1,700 -420 Descending Boston Center
10:52AM 43.6589 -70.2361 254° West 105 121 1,000 -720 Descending Boston Center
10:53AM 43.6450 -70.2853 249° West 123 142 300 4,920 Descending Boston Center
10:54AM 43.6356 -70.3344 255° West 128 147 11,000 5,340 Climbing Boston Center
10:55AM 43.6261 -70.3836 255° West 128 147 11,000  Level Boston Center
10:56AM 43.6167 -70.4356 256° West 128 147 11,000  Level Boston Center